sensor_id;sensor_type;location;lat;lon;timestamp;P1;durP1;ratioP1;P2;durP2;ratioP2
19038;SDS011;9652;49.014;12.052;2023-06-01T00:01:00;2.50;;;2.17;;
19038;SDS011;9652;49.014;12.052;2023-06-01T00:03:30;3.27;;;2.40;;
19038;SDS011;9652;49.014;12.052;2023-06-01T00:05:58;2.63;;;2.43;;
19038;SDS011;9652;49.014;12.052;2023-06-01T00:08:25;3.13;;;2.43;;
19038;SDS011;9652;49.014;12.052;2023-06-01T00:10:52;6.60;;;2.37;;
19038;SDS011;9652;49.014;12.052;2023-06-01T00:13:19;2.87;;;2.50;;
19038;SDS011;9652;49.014;12.052;2023-06-01T00:15:46;3.47;;;2.83;;
19038;SDS011;9652;49.014;12.052;2023-06-01T00:18:13;3.00;;;2.40;;
19038;SDS011;9652;49.014;12.052;2023-06-01T00:20:41;3.80;;;2.50;;
19038;SDS011;9652;49.014;12.052;2023-06-01T00:23:10;2.53;;;2.27;;
19038;SDS011;9652;49.014;12.052;2023-06-01T00:25:37;4.33;;;2.50;;
19038;SDS011;9652;49.014;12.052;2023-06-01T00:28:04;3.90;;;2.50;;
19038;SDS011;9652;49.014;12.052;2023-06-01T00:30:31;2.73;;;2.40;;
19038;SDS011;9652;49.014;12.052;2023-06-01T00:32:58;2.93;;;2.47;;
19038;SDS011;9652;49.014;12.052;2023-06-01T00:35:25;3.30;;;2.60;;
19038;SDS011;9652;49.014;12.052;2023-06-01T00:37:52;3.07;;;2.47;;
19038;SDS011;9652;49.014;12.052;2023-06-01T00:40:21;6.20;;;2.50;;
19038;SDS011;9652;49.014;12.052;2023-06-01T00:42:49;4.00;;;2.43;;
19038;SDS011;9652;49.014;12.052;2023-06-01T00:45:16;3.17;;;2.40;;
19038;SDS011;9652;49.014;12.052;2023-06-01T00:47:43;2.20;;;2.00;;
19038;SDS011;9652;49.014;12.052;2023-06-01T00:50:11;3.67;;;2.50;;
19038;SDS011;9652;49.014;12.052;2023-06-01T00:52:38;2.50;;;2.30;;
19038;SDS011;9652;49.014;12.052;2023-06-01T00:55:08;2.97;;;2.30;;
19038;SDS011;9652;49.014;12.052;2023-06-01T00:57:38;5.60;;;2.63;;
19038;SDS011;9652;49.014;12.052;2023-06-01T01:00:08;3.40;;;2.90;;
19038;SDS011;9652;49.014;12.052;2023-06-01T01:02:37;3.80;;;2.50;;
19038;SDS011;9652;49.014;12.052;2023-06-01T01:05:06;3.20;;;2.70;;
19038;SDS011;9652;49.014;12.052;2023-06-01T01:07:38;5.50;;;2.70;;
19038;SDS011;9652;49.014;12.052;2023-06-01T01:10:22;2.27;;;2.07;;
19038;SDS011;9652;49.014;12.052;2023-06-01T01:13:00;4.57;;;2.80;;
19038;SDS011;9652;49.014;12.052;2023-06-01T01:15:37;2.87;;;2.30;;
19038;SDS011;9652;49.014;12.052;2023-06-01T01:18:25;2.40;;;2.20;;
19038;SDS011;9652;49.014;12.052;2023-06-01T01:21:01;2.73;;;2.17;;
19038;SDS011;9652;49.014;12.052;2023-06-01T01:23:55;2.30;;;2.10;;
19038;SDS011;9652;49.014;12.052;2023-06-01T01:26:56;3.40;;;2.10;;
19038;SDS011;9652;49.014;12.052;2023-06-01T01:29:42;3.13;;;2.70;;
19038;SDS011;9652;49.014;12.052;2023-06-01T01:32:12;2.30;;;2.10;;
19038;SDS011;9652;49.014;12.052;2023-06-01T01:34:41;3.97;;;2.20;;
19038;SDS011;9652;49.014;12.052;2023-06-01T01:37:10;2.97;;;2.57;;
19038;SDS011;9652;49.014;12.052;2023-06-01T01:39:38;2.20;;;2.10;;
19038;SDS011;9652;49.014;12.052;2023-06-01T01:42:05;4.50;;;2.70;;
19038;SDS011;9652;49.014;12.052;2023-06-01T01:44:34;2.80;;;2.27;;
19038;SDS011;9652;49.014;12.052;2023-06-01T01:47:05;2.07;;;1.87;;
19038;SDS011;9652;49.014;12.052;2023-06-01T01:49:40;2.50;;;2.30;;
19038;SDS011;9652;49.014;12.052;2023-06-01T01:52:12;3.53;;;2.30;;
19038;SDS011;9652;49.014;12.052;2023-06-01T01:54:44;2.20;;;2.00;;
19038;SDS011;9652;49.014;12.052;2023-06-01T01:57:13;2.77;;;2.30;;
19038;SDS011;9652;49.014;12.052;2023-06-01T01:59:43;2.70;;;2.50;;
19038;SDS011;9652;49.014;12.052;2023-06-01T02:02:13;2.97;;;2.23;;
19038;SDS011;9652;49.014;12.052;2023-06-01T02:04:41;2.57;;;2.20;;
19038;SDS011;9652;49.014;12.052;2023-06-01T02:07:12;2.37;;;2.17;;
19038;SDS011;9652;49.014;12.052;2023-06-01T02:09:40;2.83;;;2.47;;
19038;SDS011;9652;49.014;12.052;2023-06-01T02:12:09;3.93;;;2.40;;
19038;SDS011;9652;49.014;12.052;2023-06-01T02:14:37;3.00;;;2.70;;
19038;SDS011;9652;49.014;12.052;2023-06-01T02:17:04;2.33;;;2.13;;
19038;SDS011;9652;49.014;12.052;2023-06-01T02:19:33;4.70;;;2.23;;
19038;SDS011;9652;49.014;12.052;2023-06-01T02:22:01;2.90;;;2.53;;
19038;SDS011;9652;49.014;12.052;2023-06-01T02:24:28;2.30;;;2.10;;
19038;SDS011;9652;49.014;12.052;2023-06-01T02:26:55;3.50;;;2.30;;
19038;SDS011;9652;49.014;12.052;2023-06-01T02:29:22;2.70;;;2.40;;
19038;SDS011;9652;49.014;12.052;2023-06-01T02:31:50;3.33;;;2.30;;
19038;SDS011;9652;49.014;12.052;2023-06-01T02:34:18;4.23;;;2.53;;
19038;SDS011;9652;49.014;12.052;2023-06-01T02:36:46;2.60;;;2.40;;
19038;SDS011;9652;49.014;12.052;2023-06-01T02:39:14;4.43;;;2.10;;
19038;SDS011;9652;49.014;12.052;2023-06-01T02:41:42;2.60;;;2.40;;
19038;SDS011;9652;49.014;12.052;2023-06-01T02:44:09;2.63;;;2.43;;
19038;SDS011;9652;49.014;12.052;2023-06-01T02:46:36;3.97;;;2.37;;
19038;SDS011;9652;49.014;12.052;2023-06-01T02:49:03;2.00;;;1.90;;
19038;SDS011;9652;49.014;12.052;2023-06-01T02:51:30;2.80;;;2.60;;
19038;SDS011;9652;49.014;12.052;2023-06-01T02:54:20;4.37;;;2.53;;
19038;SDS011;9652;49.014;12.052;2023-06-01T02:56:47;4.40;;;2.20;;
19038;SDS011;9652;49.014;12.052;2023-06-01T02:59:24;2.67;;;2.27;;
19038;SDS011;9652;49.014;12.052;2023-06-01T03:01:58;3.00;;;2.67;;
19038;SDS011;9652;49.014;12.052;2023-06-01T03:04:26;2.67;;;2.23;;
19038;SDS011;9652;49.014;12.052;2023-06-01T03:06:54;2.30;;;2.10;;
19038;SDS011;9652;49.014;12.052;2023-06-01T03:09:35;3.00;;;2.70;;
19038;SDS011;9652;49.014;12.052;2023-06-01T03:12:21;3.73;;;2.33;;
19038;SDS011;9652;49.014;12.052;2023-06-01T03:14:48;3.03;;;2.43;;
19038;SDS011;9652;49.014;12.052;2023-06-01T03:17:17;2.63;;;2.10;;
19038;SDS011;9652;49.014;12.052;2023-06-01T03:19:44;2.57;;;2.40;;
19038;SDS011;9652;49.014;12.052;2023-06-01T03:22:20;2.73;;;2.13;;
19038;SDS011;9652;49.014;12.052;2023-06-01T03:24:48;1.93;;;1.80;;
19038;SDS011;9652;49.014;12.052;2023-06-01T03:27:18;2.53;;;2.33;;
19038;SDS011;9652;49.014;12.052;2023-06-01T03:29:45;2.50;;;2.23;;
19038;SDS011;9652;49.014;12.052;2023-06-01T03:32:13;2.20;;;1.90;;
19038;SDS011;9652;49.014;12.052;2023-06-01T03:34:41;2.63;;;2.00;;
19038;SDS011;9652;49.014;12.052;2023-06-01T03:37:08;2.53;;;1.77;;
19038;SDS011;9652;49.014;12.052;2023-06-01T03:39:35;2.50;;;2.30;;
19038;SDS011;9652;49.014;12.052;2023-06-01T03:42:08;2.60;;;2.40;;
19038;SDS011;9652;49.014;12.052;2023-06-01T03:44:36;2.50;;;2.30;;
19038;SDS011;9652;49.014;12.052;2023-06-01T03:47:06;2.37;;;2.17;;
19038;SDS011;9652;49.014;12.052;2023-06-01T03:49:33;2.73;;;2.33;;
19038;SDS011;9652;49.014;12.052;2023-06-01T03:52:03;2.77;;;2.13;;
19038;SDS011;9652;49.014;12.052;2023-06-01T03:54:32;2.13;;;1.93;;
19038;SDS011;9652;49.014;12.052;2023-06-01T03:57:00;2.50;;;2.30;;
19038;SDS011;9652;49.014;12.052;2023-06-01T03:59:28;5.13;;;2.40;;
19038;SDS011;9652;49.014;12.052;2023-06-01T04:01:55;2.23;;;2.03;;
19038;SDS011;9652;49.014;12.052;2023-06-01T04:04:23;1.77;;;1.67;;
19038;SDS011;9652;49.014;12.052;2023-06-01T04:06:54;2.87;;;1.93;;
19038;SDS011;9652;49.014;12.052;2023-06-01T04:09:27;5.13;;;2.13;;
19038;SDS011;9652;49.014;12.052;2023-06-01T04:11:55;2.33;;;2.03;;
19038;SDS011;9652;49.014;12.052;2023-06-01T04:14:22;2.43;;;2.07;;
19038;SDS011;9652;49.014;12.052;2023-06-01T04:16:50;1.93;;;1.77;;
19038;SDS011;9652;49.014;12.052;2023-06-01T04:19:17;4.60;;;2.50;;
19038;SDS011;9652;49.014;12.052;2023-06-01T04:21:47;2.53;;;2.33;;
19038;SDS011;9652;49.014;12.052;2023-06-01T04:24:15;2.40;;;2.00;;
19038;SDS011;9652;49.014;12.052;2023-06-01T04:26:43;5.00;;;2.27;;
19038;SDS011;9652;49.014;12.052;2023-06-01T04:29:11;3.47;;;2.07;;
19038;SDS011;9652;49.014;12.052;2023-06-01T04:31:38;4.00;;;1.90;;
19038;SDS011;9652;49.014;12.052;2023-06-01T04:34:07;2.73;;;2.20;;
19038;SDS011;9652;49.014;12.052;2023-06-01T04:36:35;3.10;;;1.93;;
19038;SDS011;9652;49.014;12.052;2023-06-01T04:39:05;2.20;;;2.00;;
19038;SDS011;9652;49.014;12.052;2023-06-01T04:41:32;2.67;;;2.43;;
19038;SDS011;9652;49.014;12.052;2023-06-01T04:44:01;3.10;;;2.40;;
19038;SDS011;9652;49.014;12.052;2023-06-01T04:46:31;2.20;;;2.00;;
19038;SDS011;9652;49.014;12.052;2023-06-01T04:49:00;3.30;;;2.20;;
19038;SDS011;9652;49.014;12.052;2023-06-01T04:51:30;2.07;;;1.83;;
19038;SDS011;9652;49.014;12.052;2023-06-01T04:53:58;2.40;;;2.10;;
19038;SDS011;9652;49.014;12.052;2023-06-01T04:56:27;2.13;;;1.80;;
19038;SDS011;9652;49.014;12.052;2023-06-01T04:58:55;2.37;;;2.10;;
19038;SDS011;9652;49.014;12.052;2023-06-01T05:01:24;4.07;;;2.20;;
19038;SDS011;9652;49.014;12.052;2023-06-01T05:03:55;2.67;;;1.80;;
19038;SDS011;9652;49.014;12.052;2023-06-01T05:06:22;2.23;;;1.73;;
19038;SDS011;9652;49.014;12.052;2023-06-01T05:08:53;2.10;;;1.90;;
19038;SDS011;9652;49.014;12.052;2023-06-01T05:11:21;2.97;;;1.90;;
19038;SDS011;9652;49.014;12.052;2023-06-01T05:13:48;2.53;;;2.13;;
19038;SDS011;9652;49.014;12.052;2023-06-01T05:16:17;1.83;;;1.73;;
19038;SDS011;9652;49.014;12.052;2023-06-01T05:18:44;1.70;;;1.60;;
19038;SDS011;9652;49.014;12.052;2023-06-01T05:21:12;3.93;;;1.93;;
19038;SDS011;9652;49.014;12.052;2023-06-01T05:23:39;2.97;;;2.20;;
19038;SDS011;9652;49.014;12.052;2023-06-01T05:26:07;2.40;;;1.80;;
19038;SDS011;9652;49.014;12.052;2023-06-01T05:28:34;3.27;;;1.93;;
19038;SDS011;9652;49.014;12.052;2023-06-01T05:31:03;4.17;;;1.83;;
19038;SDS011;9652;49.014;12.052;2023-06-01T05:33:35;2.67;;;1.80;;
19038;SDS011;9652;49.014;12.052;2023-06-01T05:36:03;2.13;;;1.70;;
19038;SDS011;9652;49.014;12.052;2023-06-01T05:38:31;2.20;;;2.00;;
19038;SDS011;9652;49.014;12.052;2023-06-01T05:40:59;2.03;;;1.77;;
19038;SDS011;9652;49.014;12.052;2023-06-01T05:43:27;2.37;;;2.00;;
19038;SDS011;9652;49.014;12.052;2023-06-01T05:45:55;2.30;;;1.93;;
19038;SDS011;9652;49.014;12.052;2023-06-01T05:48:22;2.33;;;1.77;;
19038;SDS011;9652;49.014;12.052;2023-06-01T05:50:52;6.80;;;2.07;;
19038;SDS011;9652;49.014;12.052;2023-06-01T05:53:19;4.00;;;2.00;;
19038;SDS011;9652;49.014;12.052;2023-06-01T05:55:49;1.53;;;1.43;;
19038;SDS011;9652;49.014;12.052;2023-06-01T05:58:18;2.17;;;1.70;;
19038;SDS011;9652;49.014;12.052;2023-06-01T06:00:47;2.73;;;1.80;;
19038;SDS011;9652;49.014;12.052;2023-06-01T06:03:14;2.37;;;1.90;;
19038;SDS011;9652;49.014;12.052;2023-06-01T06:05:41;4.67;;;1.80;;
19038;SDS011;9652;49.014;12.052;2023-06-01T06:08:08;2.17;;;1.70;;
19038;SDS011;9652;49.014;12.052;2023-06-01T06:10:35;4.40;;;1.80;;
19038;SDS011;9652;49.014;12.052;2023-06-01T06:13:02;3.20;;;1.77;;
19038;SDS011;9652;49.014;12.052;2023-06-01T06:15:29;2.40;;;1.67;;
19038;SDS011;9652;49.014;12.052;2023-06-01T06:17:58;2.67;;;1.67;;
19038;SDS011;9652;49.014;12.052;2023-06-01T06:20:25;2.00;;;1.60;;
19038;SDS011;9652;49.014;12.052;2023-06-01T06:22:52;1.97;;;1.67;;
19038;SDS011;9652;49.014;12.052;2023-06-01T06:25:19;2.13;;;1.73;;
19038;SDS011;9652;49.014;12.052;2023-06-01T06:27:46;3.90;;;1.97;;
19038;SDS011;9652;49.014;12.052;2023-06-01T06:30:14;2.57;;;1.60;;
19038;SDS011;9652;49.014;12.052;2023-06-01T06:32:41;2.47;;;1.60;;
19038;SDS011;9652;49.014;12.052;2023-06-01T06:35:09;3.70;;;1.53;;
19038;SDS011;9652;49.014;12.052;2023-06-01T06:37:38;3.43;;;1.83;;
19038;SDS011;9652;49.014;12.052;2023-06-01T06:40:07;4.07;;;1.77;;
19038;SDS011;9652;49.014;12.052;2023-06-01T06:42:35;2.17;;;1.87;;
19038;SDS011;9652;49.014;12.052;2023-06-01T06:45:02;3.33;;;1.60;;
19038;SDS011;9652;49.014;12.052;2023-06-01T06:47:31;2.80;;;1.77;;
19038;SDS011;9652;49.014;12.052;2023-06-01T06:49:58;2.03;;;1.80;;
19038;SDS011;9652;49.014;12.052;2023-06-01T06:52:26;1.73;;;1.60;;
19038;SDS011;9652;49.014;12.052;2023-06-01T06:54:53;1.77;;;1.40;;
19038;SDS011;9652;49.014;12.052;2023-06-01T06:57:20;3.03;;;1.80;;
19038;SDS011;9652;49.014;12.052;2023-06-01T06:59:47;3.23;;;1.83;;
19038;SDS011;9652;49.014;12.052;2023-06-01T07:02:14;2.20;;;1.70;;
19038;SDS011;9652;49.014;12.052;2023-06-01T07:04:41;1.67;;;1.33;;
19038;SDS011;9652;49.014;12.052;2023-06-01T07:07:08;5.07;;;1.60;;
19038;SDS011;9652;49.014;12.052;2023-06-01T07:09:38;2.50;;;1.93;;
19038;SDS011;9652;49.014;12.052;2023-06-01T07:12:06;3.07;;;1.57;;
19038;SDS011;9652;49.014;12.052;2023-06-01T07:14:34;4.70;;;1.50;;
19038;SDS011;9652;49.014;12.052;2023-06-01T07:17:01;3.03;;;1.70;;
19038;SDS011;9652;49.014;12.052;2023-06-01T07:19:28;4.37;;;1.80;;
19038;SDS011;9652;49.014;12.052;2023-06-01T07:21:58;3.13;;;1.83;;
19038;SDS011;9652;49.014;12.052;2023-06-01T07:24:26;2.63;;;1.60;;
19038;SDS011;9652;49.014;12.052;2023-06-01T07:26:54;2.43;;;1.53;;
19038;SDS011;9652;49.014;12.052;2023-06-01T07:29:22;2.43;;;1.40;;
19038;SDS011;9652;49.014;12.052;2023-06-01T07:31:50;2.47;;;1.60;;
19038;SDS011;9652;49.014;12.052;2023-06-01T07:34:18;1.33;;;1.20;;
19038;SDS011;9652;49.014;12.052;2023-06-01T07:36:45;3.70;;;1.50;;
19038;SDS011;9652;49.014;12.052;2023-06-01T07:39:14;2.67;;;1.53;;
19038;SDS011;9652;49.014;12.052;2023-06-01T07:41:41;2.87;;;1.77;;
19038;SDS011;9652;49.014;12.052;2023-06-01T07:44:12;1.40;;;1.30;;
19038;SDS011;9652;49.014;12.052;2023-06-01T07:46:43;2.53;;;1.60;;
19038;SDS011;9652;49.014;12.052;2023-06-01T07:49:11;4.33;;;1.30;;
19038;SDS011;9652;49.014;12.052;2023-06-01T07:51:39;3.67;;;1.73;;
19038;SDS011;9652;49.014;12.052;2023-06-01T07:54:06;2.70;;;1.60;;
19038;SDS011;9652;49.014;12.052;2023-06-01T07:56:33;3.57;;;1.80;;
19038;SDS011;9652;49.014;12.052;2023-06-01T07:59:00;3.33;;;1.80;;
19038;SDS011;9652;49.014;12.052;2023-06-01T08:01:29;4.63;;;2.73;;
19038;SDS011;9652;49.014;12.052;2023-06-01T08:03:56;2.20;;;1.47;;
19038;SDS011;9652;49.014;12.052;2023-06-01T08:06:27;3.33;;;1.70;;
19038;SDS011;9652;49.014;12.052;2023-06-01T08:09:00;2.20;;;1.70;;
19038;SDS011;9652;49.014;12.052;2023-06-01T08:11:28;4.30;;;1.83;;
19038;SDS011;9652;49.014;12.052;2023-06-01T08:13:56;2.93;;;1.43;;
19038;SDS011;9652;49.014;12.052;2023-06-01T08:16:25;4.27;;;1.40;;
19038;SDS011;9652;49.014;12.052;2023-06-01T08:18:54;3.97;;;1.87;;
19038;SDS011;9652;49.014;12.052;2023-06-01T08:21:21;1.80;;;1.50;;
19038;SDS011;9652;49.014;12.052;2023-06-01T08:23:50;2.30;;;1.33;;
19038;SDS011;9652;49.014;12.052;2023-06-01T08:26:18;2.03;;;1.60;;
19038;SDS011;9652;49.014;12.052;2023-06-01T08:28:45;3.33;;;1.63;;
19038;SDS011;9652;49.014;12.052;2023-06-01T08:31:16;2.70;;;1.50;;
19038;SDS011;9652;49.014;12.052;2023-06-01T08:33:44;2.40;;;1.53;;
19038;SDS011;9652;49.014;12.052;2023-06-01T08:36:13;2.90;;;1.37;;
19038;SDS011;9652;49.014;12.052;2023-06-01T08:38:40;2.13;;;1.50;;
19038;SDS011;9652;49.014;12.052;2023-06-01T08:41:11;4.40;;;1.47;;
19038;SDS011;9652;49.014;12.052;2023-06-01T08:43:48;2.17;;;1.50;;
19038;SDS011;9652;49.014;12.052;2023-06-01T08:46:27;3.13;;;1.70;;
19038;SDS011;9652;49.014;12.052;2023-06-01T08:48:59;1.90;;;1.30;;
19038;SDS011;9652;49.014;12.052;2023-06-01T08:51:28;3.70;;;1.43;;
19038;SDS011;9652;49.014;12.052;2023-06-01T08:54:02;2.33;;;1.57;;
19038;SDS011;9652;49.014;12.052;2023-06-01T08:56:30;3.30;;;1.77;;
19038;SDS011;9652;49.014;12.052;2023-06-01T08:58:58;3.17;;;1.73;;
19038;SDS011;9652;49.014;12.052;2023-06-01T09:01:27;1.60;;;1.33;;
19038;SDS011;9652;49.014;12.052;2023-06-01T09:03:54;1.97;;;1.30;;
19038;SDS011;9652;49.014;12.052;2023-06-01T09:06:21;2.90;;;1.40;;
19038;SDS011;9652;49.014;12.052;2023-06-01T09:08:49;2.50;;;1.70;;
19038;SDS011;9652;49.014;12.052;2023-06-01T09:11:16;2.43;;;1.60;;
19038;SDS011;9652;49.014;12.052;2023-06-01T09:13:44;4.67;;;1.53;;
19038;SDS011;9652;49.014;12.052;2023-06-01T09:16:11;1.93;;;1.40;;
19038;SDS011;9652;49.014;12.052;2023-06-01T09:18:49;1.57;;;1.30;;
19038;SDS011;9652;49.014;12.052;2023-06-01T09:21:18;3.63;;;2.07;;
19038;SDS011;9652;49.014;12.052;2023-06-01T09:23:46;2.47;;;1.50;;
19038;SDS011;9652;49.014;12.052;2023-06-01T09:26:15;1.97;;;1.40;;
19038;SDS011;9652;49.014;12.052;2023-06-01T09:28:51;2.00;;;1.37;;
19038;SDS011;9652;49.014;12.052;2023-06-01T09:31:36;2.10;;;1.80;;
19038;SDS011;9652;49.014;12.052;2023-06-01T09:34:06;3.57;;;1.70;;
19038;SDS011;9652;49.014;12.052;2023-06-01T09:36:35;4.37;;;1.83;;
19038;SDS011;9652;49.014;12.052;2023-06-01T09:39:03;2.50;;;1.73;;
19038;SDS011;9652;49.014;12.052;2023-06-01T09:41:49;2.53;;;1.50;;
19038;SDS011;9652;49.014;12.052;2023-06-01T09:44:23;1.93;;;1.40;;
19038;SDS011;9652;49.014;12.052;2023-06-01T09:46:53;1.77;;;1.33;;
19038;SDS011;9652;49.014;12.052;2023-06-01T09:49:23;3.40;;;2.00;;
19038;SDS011;9652;49.014;12.052;2023-06-01T09:51:52;3.23;;;1.83;;
19038;SDS011;9652;49.014;12.052;2023-06-01T09:54:35;2.00;;;1.60;;
19038;SDS011;9652;49.014;12.052;2023-06-01T09:57:07;4.00;;;1.80;;
19038;SDS011;9652;49.014;12.052;2023-06-01T09:59:39;2.97;;;1.80;;
19038;SDS011;9652;49.014;12.052;2023-06-01T10:02:10;2.30;;;1.60;;
19038;SDS011;9652;49.014;12.052;2023-06-01T10:04:40;2.97;;;1.80;;
19038;SDS011;9652;49.014;12.052;2023-06-01T10:07:10;2.80;;;2.00;;
19038;SDS011;9652;49.014;12.052;2023-06-01T10:09:40;3.03;;;1.57;;
19038;SDS011;9652;49.014;12.052;2023-06-01T10:12:12;3.43;;;1.80;;
19038;SDS011;9652;49.014;12.052;2023-06-01T10:14:40;2.63;;;1.83;;
19038;SDS011;9652;49.014;12.052;2023-06-01T10:17:07;2.40;;;1.70;;
19038;SDS011;9652;49.014;12.052;2023-06-01T10:19:36;1.37;;;1.27;;
19038;SDS011;9652;49.014;12.052;2023-06-01T10:22:04;2.78;;;1.83;;
19038;SDS011;9652;49.014;12.052;2023-06-01T10:24:32;3.17;;;1.90;;
19038;SDS011;9652;49.014;12.052;2023-06-01T10:27:07;1.98;;;1.33;;
19038;SDS011;9652;49.014;12.052;2023-06-01T10:29:46;1.80;;;1.60;;
19038;SDS011;9652;49.014;12.052;2023-06-01T10:35:32;3.72;;;1.83;;
19038;SDS011;9652;49.014;12.052;2023-06-01T10:38:26;3.05;;;1.80;;
19038;SDS011;9652;49.014;12.052;2023-06-01T10:41:24;1.97;;;1.40;;
19038;SDS011;9652;49.014;12.052;2023-06-01T10:43:55;2.05;;;1.52;;
19038;SDS011;9652;49.014;12.052;2023-06-01T10:46:36;3.22;;;1.63;;
19038;SDS011;9652;49.014;12.052;2023-06-01T10:49:08;2.43;;;1.33;;
19038;SDS011;9652;49.014;12.052;2023-06-01T10:51:35;4.10;;;1.23;;
19038;SDS011;9652;49.014;12.052;2023-06-01T11:02:43;4.10;;;1.77;;
19038;SDS011;9652;49.014;12.052;2023-06-01T11:11:21;1.92;;;1.40;;
19038;SDS011;9652;49.014;12.052;2023-06-01T11:16:50;3.97;;;1.75;;
19038;SDS011;9652;49.014;12.052;2023-06-01T11:19:18;4.18;;;1.48;;
19038;SDS011;9652;49.014;12.052;2023-06-01T11:21:54;2.75;;;1.60;;
19038;SDS011;9652;49.014;12.052;2023-06-01T11:24:25;2.47;;;1.80;;
19038;SDS011;9652;49.014;12.052;2023-06-01T11:27:01;2.17;;;1.48;;
19038;SDS011;9652;49.014;12.052;2023-06-01T11:29:32;2.20;;;1.63;;
19038;SDS011;9652;49.014;12.052;2023-06-01T11:32:02;2.00;;;1.40;;
19038;SDS011;9652;49.014;12.052;2023-06-01T11:34:31;2.00;;;1.50;;
19038;SDS011;9652;49.014;12.052;2023-06-01T11:37:02;1.98;;;1.35;;
19038;SDS011;9652;49.014;12.052;2023-06-01T11:39:31;1.80;;;1.50;;
19038;SDS011;9652;49.014;12.052;2023-06-01T11:42:03;2.10;;;1.42;;
19038;SDS011;9652;49.014;12.052;2023-06-01T11:44:33;1.60;;;1.10;;
19038;SDS011;9652;49.014;12.052;2023-06-01T11:47:03;2.72;;;1.58;;
19038;SDS011;9652;49.014;12.052;2023-06-01T11:49:39;4.20;;;1.50;;
19038;SDS011;9652;49.014;12.052;2023-06-01T11:52:09;2.03;;;1.60;;
19038;SDS011;9652;49.014;12.052;2023-06-01T11:54:37;2.05;;;1.65;;
19038;SDS011;9652;49.014;12.052;2023-06-01T11:57:05;2.03;;;1.40;;
19038;SDS011;9652;49.014;12.052;2023-06-01T11:59:36;2.58;;;1.63;;
19038;SDS011;9652;49.014;12.052;2023-06-01T12:02:09;2.30;;;2.05;;
19038;SDS011;9652;49.014;12.052;2023-06-01T12:04:53;3.53;;;1.58;;
19038;SDS011;9652;49.014;12.052;2023-06-01T12:07:22;1.92;;;1.50;;
19038;SDS011;9652;49.014;12.052;2023-06-01T12:09:50;3.97;;;1.55;;
19038;SDS011;9652;49.014;12.052;2023-06-01T12:12:20;3.42;;;1.52;;
19038;SDS011;9652;49.014;12.052;2023-06-01T12:14:50;2.63;;;1.40;;
19038;SDS011;9652;49.014;12.052;2023-06-01T12:17:19;1.92;;;1.45;;
19038;SDS011;9652;49.014;12.052;2023-06-01T12:19:46;1.95;;;1.33;;
19038;SDS011;9652;49.014;12.052;2023-06-01T12:22:14;1.83;;;1.60;;
19038;SDS011;9652;49.014;12.052;2023-06-01T12:24:41;2.58;;;1.20;;
19038;SDS011;9652;49.014;12.052;2023-06-01T12:27:13;2.70;;;1.40;;
19038;SDS011;9652;49.014;12.052;2023-06-01T12:29:42;2.33;;;1.40;;
19038;SDS011;9652;49.014;12.052;2023-06-01T12:32:12;3.40;;;1.50;;
19038;SDS011;9652;49.014;12.052;2023-06-01T12:34:44;1.85;;;1.33;;
19038;SDS011;9652;49.014;12.052;2023-06-01T12:37:31;3.33;;;1.40;;
19038;SDS011;9652;49.014;12.052;2023-06-01T12:39:58;2.45;;;1.38;;
19038;SDS011;9652;49.014;12.052;2023-06-01T12:42:35;4.28;;;1.48;;
19038;SDS011;9652;49.014;12.052;2023-06-01T12:45:03;1.77;;;1.50;;
19038;SDS011;9652;49.014;12.052;2023-06-01T12:47:35;2.58;;;1.65;;
19038;SDS011;9652;49.014;12.052;2023-06-01T12:50:05;2.00;;;1.40;;
19038;SDS011;9652;49.014;12.052;2023-06-01T12:52:35;1.92;;;1.08;;
19038;SDS011;9652;49.014;12.052;2023-06-01T12:55:02;1.35;;;1.25;;
19038;SDS011;9652;49.014;12.052;2023-06-01T12:57:31;1.30;;;1.20;;
19038;SDS011;9652;49.014;12.052;2023-06-01T12:59:58;1.73;;;1.20;;
19038;SDS011;9652;49.014;12.052;2023-06-01T13:02:26;2.08;;;1.20;;
19038;SDS011;9652;49.014;12.052;2023-06-01T13:04:53;1.42;;;1.30;;
19038;SDS011;9652;49.014;12.052;2023-06-01T13:07:21;1.70;;;1.20;;
19038;SDS011;9652;49.014;12.052;2023-06-01T13:09:48;2.03;;;1.70;;
19038;SDS011;9652;49.014;12.052;2023-06-01T13:12:16;2.85;;;1.40;;
19038;SDS011;9652;49.014;12.052;2023-06-01T13:14:43;2.13;;;1.55;;
19038;SDS011;9652;49.014;12.052;2023-06-01T13:17:11;1.67;;;1.08;;
19038;SDS011;9652;49.014;12.052;2023-06-01T13:19:38;1.33;;;1.10;;
19038;SDS011;9652;49.014;12.052;2023-06-01T13:22:05;1.63;;;1.20;;
19038;SDS011;9652;49.014;12.052;2023-06-01T13:24:34;1.50;;;1.23;;
19038;SDS011;9652;49.014;12.052;2023-06-01T13:27:01;1.88;;;1.20;;
19038;SDS011;9652;49.014;12.052;2023-06-01T13:29:30;1.38;;;1.15;;
19038;SDS011;9652;49.014;12.052;2023-06-01T13:31:57;2.10;;;1.20;;
19038;SDS011;9652;49.014;12.052;2023-06-01T13:34:24;2.55;;;1.02;;
19038;SDS011;9652;49.014;12.052;2023-06-01T13:36:51;1.73;;;1.08;;
19038;SDS011;9652;49.014;12.052;2023-06-01T13:39:18;2.88;;;1.13;;
19038;SDS011;9652;49.014;12.052;2023-06-01T13:41:46;1.30;;;1.10;;
19038;SDS011;9652;49.014;12.052;2023-06-01T13:44:14;1.85;;;1.20;;
19038;SDS011;9652;49.014;12.052;2023-06-01T13:46:43;1.73;;;1.00;;
19038;SDS011;9652;49.014;12.052;2023-06-01T13:49:10;1.77;;;1.10;;
19038;SDS011;9652;49.014;12.052;2023-06-01T13:51:37;1.88;;;1.10;;
19038;SDS011;9652;49.014;12.052;2023-06-01T13:54:04;2.20;;;1.05;;
19038;SDS011;9652;49.014;12.052;2023-06-01T13:56:31;0.90;;;0.85;;
19038;SDS011;9652;49.014;12.052;2023-06-01T13:59:00;2.50;;;1.30;;
19038;SDS011;9652;49.014;12.052;2023-06-01T14:01:27;3.00;;;1.35;;
19038;SDS011;9652;49.014;12.052;2023-06-01T14:03:54;1.77;;;1.10;;
19038;SDS011;9652;49.014;12.052;2023-06-01T14:06:21;4.78;;;1.30;;
19038;SDS011;9652;49.014;12.052;2023-06-01T14:08:48;2.15;;;1.25;;
19038;SDS011;9652;49.014;12.052;2023-06-01T14:11:16;1.10;;;1.00;;
19038;SDS011;9652;49.014;12.052;2023-06-01T14:13:42;1.40;;;1.17;;
19038;SDS011;9652;49.014;12.052;2023-06-01T14:16:11;1.25;;;1.00;;
19038;SDS011;9652;49.014;12.052;2023-06-01T14:18:38;1.83;;;1.08;;
19038;SDS011;9652;49.014;12.052;2023-06-01T14:21:05;5.57;;;1.48;;
19038;SDS011;9652;49.014;12.052;2023-06-01T14:23:32;0.75;;;0.75;;
19038;SDS011;9652;49.014;12.052;2023-06-01T14:25:59;1.83;;;1.10;;
19038;SDS011;9652;49.014;12.052;2023-06-01T14:28:26;1.27;;;1.00;;
19038;SDS011;9652;49.014;12.052;2023-06-01T14:30:53;1.60;;;1.00;;
19038;SDS011;9652;49.014;12.052;2023-06-01T14:33:21;2.45;;;0.98;;
19038;SDS011;9652;49.014;12.052;2023-06-01T14:35:48;1.15;;;1.02;;
19038;SDS011;9652;49.014;12.052;2023-06-01T14:38:15;1.20;;;1.00;;
19038;SDS011;9652;49.014;12.052;2023-06-01T14:40:42;1.40;;;0.93;;
19038;SDS011;9652;49.014;12.052;2023-06-01T14:43:09;1.42;;;1.05;;
19038;SDS011;9652;49.014;12.052;2023-06-01T14:45:37;1.33;;;0.95;;
19038;SDS011;9652;49.014;12.052;2023-06-01T14:48:03;1.30;;;0.80;;
19038;SDS011;9652;49.014;12.052;2023-06-01T14:50:32;2.30;;;1.00;;
19038;SDS011;9652;49.014;12.052;2023-06-01T14:52:59;1.45;;;1.20;;
19038;SDS011;9652;49.014;12.052;2023-06-01T14:55:26;3.00;;;1.38;;
19038;SDS011;9652;49.014;12.052;2023-06-01T14:57:53;1.23;;;0.90;;
19038;SDS011;9652;49.014;12.052;2023-06-01T15:00:21;1.58;;;1.17;;
19038;SDS011;9652;49.014;12.052;2023-06-01T15:02:48;1.90;;;1.17;;
19038;SDS011;9652;49.014;12.052;2023-06-01T15:05:15;2.58;;;1.35;;
19038;SDS011;9652;49.014;12.052;2023-06-01T15:07:44;1.75;;;1.23;;
19038;SDS011;9652;49.014;12.052;2023-06-01T15:10:11;1.33;;;1.00;;
19038;SDS011;9652;49.014;12.052;2023-06-01T15:12:38;2.42;;;1.30;;
19038;SDS011;9652;49.014;12.052;2023-06-01T15:15:05;1.20;;;0.90;;
19038;SDS011;9652;49.014;12.052;2023-06-01T15:17:33;1.52;;;1.00;;
19038;SDS011;9652;49.014;12.052;2023-06-01T15:20:00;3.30;;;1.17;;
19038;SDS011;9652;49.014;12.052;2023-06-01T15:22:27;2.15;;;0.95;;